Time;durP1;ratioP1;P1;durP2;ratioP2;P2;SDS_P1;SDS_P2;PMS_P1;PMS_P2;Temp;Humidity;BMP_temperature;BMP_pressure;BME280_temperature;BME280_humidity;BME280_pressure;Samples;Min_cycle;Max_cycle;Signal;HPM_P1;HPM_P2
2023/01/12 05:01:28;;;;;;;11.55;2.47;;;9.40;99.80;;;-146.68;100.00;58542.28;5363329;23;20343;-76
2023/01/12 05:04:02;;;;;;;10.77;3.20;;;11.20;99.90;;;-146.68;100.00;58542.28;4837927;29;20069;-74
2023/01/12 05:06:29;;;;;;;11.68;2.88;;;9.50;99.80;;;-146.68;100.00;58542.28;4833883;29;20064;-75
2023/01/12 05:11:46;;;;;;;11.85;2.92;;;9.60;99.80;;;-146.68;100.00;58542.28;4854480;29;20087;-73
2023/01/12 05:14:13;;;;;;;11.60;3.10;;;10.70;99.90;;;-146.68;100.00;58542.28;4865418;29;20045;-74
2023/01/12 05:16:43;;;;;;;11.48;3.45;;;9.60;99.70;;;-146.68;100.00;58542.28;4845502;29;20068;-79
2023/01/12 05:19:14;;;;;;;11.48;2.38;;;9.50;99.80;;;-146.68;100.00;58542.28;4826785;29;20137;-78
2023/01/12 05:21:42;;;;;;;9.68;2.28;;;9.50;99.90;;;-146.68;100.00;58542.28;4847142;29;20845;-77
2023/01/12 05:24:14;;;;;;;6.90;2.83;;;9.60;99.80;;;-146.68;100.00;58542.28;4847512;29;20046;-77
2023/01/12 05:26:42;;;;;;;;;;;9.60;99.90;;;-146.68;100.00;58542.28;4839608;29;20066;-78
2023/01/12 05:29:11;;;;;;;14.00;2.80;;;9.50;99.90;;;-146.68;100.00;58542.28;4842512;29;19928;-77
2023/01/12 05:31:38;;;;;;;10.48;3.90;;;9.40;99.90;;;-146.68;100.00;58542.28;4841453;29;20479;-77
2023/01/12 05:34:07;;;;;;;13.52;4.13;;;9.80;99.90;;;-146.68;100.00;58542.28;4838681;29;20049;-78
2023/01/12 05:36:34;;;;;;;10.30;4.10;;;10.20;99.90;;;-146.68;100.00;58542.28;4840389;29;20054;-77
2023/01/12 05:39:05;;;;;;;9.65;2.60;;;10.30;99.90;;;-146.68;100.00;58542.28;4840386;29;20054;-78
2023/01/12 05:41:35;;;;;;;10.07;4.35;;;9.10;99.90;;;-146.68;100.00;58542.28;4840573;29;20049;-77
2023/01/12 05:44:03;;;;;;;;;;;9.50;99.90;;;-146.68;100.00;58542.28;4813203;29;20046;-77
2023/01/12 05:46:39;;;;;;;15.60;3.05;;;9.50;99.90;;;-146.68;100.00;58542.28;4847655;29;19924;-76
2023/01/12 05:49:09;;;;;;;10.23;3.30;;;10.60;99.90;;;-146.68;100.00;58542.28;4839345;29;20092;-77
2023/01/12 05:51:39;;;;;;;8.50;3.42;;;8.20;99.90;;;-146.68;100.00;58542.28;4822676;29;20061;-76
2023/01/12 05:54:08;;;;;;;11.55;2.85;;;9.40;99.90;;;-146.68;100.00;58542.28;4806325;29;20062;-76
2023/01/12 05:56:37;;;;;;;10.50;4.40;;;9.50;99.90;;;-146.68;100.00;58542.28;4801474;29;20054;-77
2023/01/12 05:59:09;;;;;;;11.27;3.45;;;9.50;99.90;;;-146.68;100.00;58542.28;4793195;29;20062;-77
2023/01/12 06:01:39;;;;;;;11.70;2.70;;;9.40;99.90;;;-146.68;100.00;58542.28;4807451;29;20110;-78
2023/01/12 06:04:10;;;;;;;14.75;3.17;;;10.30;99.90;;;-146.68;100.00;58542.28;4779931;29;20092;-78
2023/01/12 06:06:38;;;;;;;14.48;7.18;;;9.50;99.90;;;-146.68;100.00;58542.28;4774833;30;20191;-78
2023/01/12 06:09:05;;;;;;;12.13;3.50;;;9.40;99.90;;;-146.68;100.00;58542.28;4768590;29;20090;-78
2023/01/12 06:14:20;;;;;;;11.88;3.42;;;9.40;99.90;;;-146.68;100.00;58542.28;4786026;29;20575;-78
2023/01/12 06:16:51;;;;;;;14.35;3.88;;;9.40;99.90;;;-146.68;100.00;58542.28;4755257;30;20100;-78
2023/01/12 06:19:20;;;;;;;11.30;3.17;;;9.40;99.90;;;-146.68;100.00;58542.28;4770009;29;20068;-77
2023/01/12 06:21:51;;;;;;;6.82;2.53;;;7.90;99.90;;;-146.68;100.00;58542.28;4739222;29;20061;-78
2023/01/12 06:24:20;;;;;;;10.95;3.05;;;9.40;99.90;;;-146.68;100.00;58542.28;4831854;29;20065;-78
2023/01/12 06:26:50;;;;;;;13.52;3.15;;;10.30;99.90;;;-146.68;100.00;58542.28;4846879;29;20042;-78
2023/01/12 06:29:18;;;;;;;9.57;3.30;;;9.40;99.90;;;-146.68;100.00;58542.28;4803152;29;20061;-78
2023/01/12 06:31:47;;;;;;;13.55;3.22;;;10.80;99.90;;;-146.68;100.00;58542.28;4816530;29;20570;-78
2023/01/12 06:34:16;;;;;;;8.23;3.35;;;10.20;99.90;;;-146.68;100.00;58542.28;4826624;29;20106;-78
2023/01/12 06:36:43;;;;;;;6.80;2.60;;;10.80;99.90;;;-146.68;100.00;58542.28;4848571;29;20054;-78
2023/01/12 06:39:13;;;;;;;8.45;2.95;;;8.60;99.90;;;-146.68;100.00;58542.28;4833309;29;20057;-78
2023/01/12 06:44:27;;;;;;;8.50;3.85;;;10.70;99.90;;;-146.68;100.00;58542.28;4854942;29;20074;-76
2023/01/12 06:46:54;;;;;;;12.00;3.28;;;9.50;99.90;;;-146.68;100.00;58542.28;4848231;29;20526;-76
2023/01/12 06:49:22;;;;;;;14.40;2.92;;;9.50;99.90;;;-146.68;100.00;58542.28;4823823;29;20077;-77
2023/01/12 06:51:50;;;;;;;8.10;2.15;;;9.50;99.90;;;-146.68;100.00;58542.28;4837744;29;20431;-77
2023/01/12 06:54:18;;;;;;;13.80;3.15;;;9.50;99.90;;;-146.68;100.00;58542.28;4834477;29;20484;-76
2023/01/12 06:56:46;;;;;;;9.18;3.05;;;10.50;99.90;;;-146.68;100.00;58542.28;4860773;29;20049;-77
2023/01/12 06:59:14;;;;;;;15.93;3.83;;;9.50;99.90;;;-146.68;100.00;58542.28;4856334;29;20057;-77
2023/01/12 07:01:42;;;;;;;8.98;3.95;;;9.80;99.90;;;-146.68;100.00;58542.28;4811586;29;20414;-78
2023/01/12 07:04:09;;;;;;;11.77;4.43;;;9.50;99.90;;;-146.68;100.00;58542.28;4833525;29;20102;-78
2023/01/12 07:06:36;;;;;;;8.77;2.65;;;11.10;99.90;;;-146.68;100.00;58542.28;4823421;29;20037;-77
2023/01/12 07:09:04;;;;;;;8.27;2.53;;;10.50;99.90;;;-146.68;100.00;58542.28;4851528;29;20052;-77
2023/01/12 07:11:34;;;;;;;9.93;2.67;;;9.60;99.90;;;-146.68;100.00;58542.28;4841153;29;20046;-79
2023/01/12 07:14:09;;;;;;;8.57;2.95;;;10.80;99.90;;;-146.68;100.00;58542.28;4840492;29;20049;-80
2023/01/12 07:16:39;;;;;;;14.05;3.20;;;9.50;99.90;;;-146.68;100.00;58542.28;4809736;29;20148;-80
2023/01/12 07:19:07;;;;;;;12.52;3.97;;;10.70;99.90;;;-146.68;100.00;58542.28;4799390;29;20066;-80
2023/01/12 07:21:34;;;;;;;10.75;3.17;;;9.60;99.90;;;-146.68;100.00;58542.28;4847866;29;20236;-79
2023/01/12 07:24:02;;;;;;;12.88;4.63;;;10.60;99.90;;;-146.68;100.00;58542.28;4829152;29;20053;-79
2023/01/12 07:26:30;;;;;;;11.52;3.00;;;9.60;99.90;;;-146.68;100.00;58542.28;4841722;29;20053;-78
2023/01/12 07:28:57;;;;;;;15.35;3.17;;;9.60;99.90;;;-146.68;100.00;58542.28;4831061;29;20050;-80
2023/01/12 07:31:26;;;;;;;9.30;2.88;;;9.60;99.90;;;-146.68;100.00;58542.28;4852651;29;20463;-77
2023/01/12 07:33:53;;;;;;;8.60;2.78;;;9.60;99.80;;;-146.68;100.00;58542.28;4817496;29;20050;-79
2023/01/12 07:36:22;;;;;;;10.05;3.38;;;11.00;99.90;;;-146.68;100.00;58542.28;4840056;29;20046;-77
2023/01/12 07:38:49;;;;;;;10.23;2.35;;;11.10;99.90;;;-146.68;100.00;58542.28;4845110;29;20062;-77
2023/01/12 07:44:08;;;;;;;7.68;4.03;;;9.70;99.70;;;-146.68;100.00;58542.28;4840465;29;20050;-77
2023/01/12 07:46:35;;;;;;;11.95;3.30;;;9.70;99.70;;;-146.68;100.00;58542.28;4849932;29;20455;-77
2023/01/12 07:49:05;;;;;;;13.15;2.42;;;9.70;99.70;;;-146.68;100.00;58542.28;4836968;29;20054;-77
2023/01/12 07:51:34;;;;;;;8.35;3.08;;;9.80;99.60;;;-146.68;100.00;58542.28;4821012;29;20083;-77
2023/01/12 07:54:03;;;;;;;8.68;3.05;;;8.80;99.60;;;-146.68;100.00;58542.28;4832660;29;20050;-78
2023/01/12 07:56:30;;;;;;;10.77;3.25;;;9.80;99.70;;;-146.68;100.00;58542.28;4840450;29;20102;-77
2023/01/12 07:59:03;;;;;;;7.85;3.03;;;9.80;99.60;;;-146.68;100.00;58542.28;4817738;29;20361;-77
2023/01/12 08:01:34;;;;;;;10.80;3.22;;;10.00;99.80;;;-146.68;100.00;58542.28;4754589;30;20064;-78
2023/01/12 08:04:03;;;;;;;10.13;3.60;;;9.80;99.80;;;-146.68;100.00;58542.28;4784321;30;20087;-76
2023/01/12 08:06:34;;;;;;;11.63;3.60;;;9.80;99.90;;;-146.68;100.00;58542.28;4813736;29;20046;-78
2023/01/12 08:09:03;;;;;;;8.23;3.15;;;9.70;99.70;;;-146.68;100.00;58542.28;4777102;30;20143;-76
2023/01/12 08:11:31;;;;;;;9.23;2.67;;;9.80;99.90;;;-146.68;100.00;58542.28;4783305;29;20539;-77
2023/01/12 08:14:04;;;;;;;10.63;2.40;;;8.50;99.50;;;-146.68;100.00;58542.28;4777464;30;20105;-77
2023/01/12 08:16:44;;;;;;;;;;;9.80;99.60;;;-146.68;100.00;58542.28;4777134;29;20068;-78
2023/01/12 08:19:18;;;;;;;13.82;3.83;;;9.80;99.70;;;-146.68;100.00;58542.28;4808356;29;19931;-80
2023/01/12 08:21:57;;;;;;;10.02;3.42;;;8.80;99.50;;;-146.68;100.00;58542.28;4810973;29;20054;-78
2023/01/12 08:24:36;;;;;;;10.85;3.20;;;9.80;99.70;;;-146.68;100.00;58542.28;4850239;29;20038;-77
2023/01/12 08:27:07;;;;;;;11.80;2.45;;;8.70;99.30;;;-146.68;100.00;58542.28;4823059;29;20141;-78
2023/01/12 08:29:49;;;;;;;9.85;2.88;;;9.90;99.70;;;-146.68;100.00;58542.28;4797350;29;20064;-78
2023/01/12 08:32:17;;;;;;;9.95;2.67;;;9.90;99.80;;;-146.68;100.00;58542.28;4798527;29;20068;-77
2023/01/12 08:34:49;;;;;;;10.00;4.70;;;9.90;99.70;;;-146.68;100.00;58542.28;4851574;29;20056;-78
2023/01/12 08:37:23;;;;;;;11.20;2.35;;;9.90;99.50;;;-146.68;100.00;58542.28;4840932;29;20491;-79
2023/01/12 08:39:51;;;;;;;7.90;3.40;;;9.90;99.50;;;-146.68;100.00;58542.28;4822597;29;20165;-77
2023/01/12 08:42:29;;;;;;;7.72;2.63;;;10.00;99.60;;;-146.68;100.00;58542.28;4832722;29;20475;-79
2023/01/12 08:44:58;;;;;;;5.13;2.67;;;10.00;99.80;;;-146.68;100.00;58542.28;4808800;29;20115;-77
2023/01/12 08:47:29;;;;;;;6.38;2.10;;;10.00;99.90;;;-146.68;100.00;58542.28;4829022;29;20069;-76
2023/01/12 08:49:59;;;;;;;9.30;2.60;;;9.90;99.90;;;-146.68;100.00;58542.28;4826084;29;20053;-76
2023/01/12 08:52:33;;;;;;;8.93;2.83;;;9.90;99.90;;;-146.68;100.00;58542.28;4793757;29;20069;-75
2023/01/12 08:55:00;;;;;;;8.55;2.70;;;9.90;99.90;;;-146.68;100.00;58542.28;4843845;29;20054;-79
2023/01/12 08:57:29;;;;;;;7.57;2.10;;;8.90;99.90;;;-146.68;100.00;58542.28;4800656;29;20511;-77
2023/01/12 08:59:58;;;;;;;5.22;2.47;;;10.20;99.90;;;-146.68;100.00;58542.28;4846035;29;20089;-75
2023/01/12 09:02:26;;;;;;;9.07;2.40;;;11.80;99.90;;;-146.68;100.00;58542.28;4850152;29;20056;-76
2023/01/12 09:04:58;;;;;;;8.80;2.67;;;9.90;99.90;;;-146.68;100.00;58542.28;4807339;29;20068;-77
2023/01/12 09:07:29;;;;;;;12.30;3.22;;;9.90;99.90;;;-146.68;100.00;58542.28;4850162;29;20030;-78
2023/01/12 09:09:56;;;;;;;12.95;2.78;;;8.70;99.80;;;-146.68;100.00;58542.28;4797248;29;20055;-78
2023/01/12 09:12:26;;;;;;;11.25;2.85;;;9.90;99.90;;;-146.68;100.00;58542.28;4828524;29;20062;-77
2023/01/12 09:14:54;;;;;;;;;;;10.70;99.90;;;-146.68;100.00;58542.28;4820282;29;20061;-78
2023/01/12 09:17:25;;;;;;;12.57;5.28;;;9.90;99.90;;;-146.68;100.00;58542.28;4803650;29;20019;-77
2023/01/12 09:19:54;;;;;;;13.95;4.78;;;10.90;99.90;;;-146.68;100.00;58542.28;4810922;29;20077;-77
2023/01/12 09:22:27;;;;;;;9.32;3.40;;;9.70;99.90;;;-146.68;100.00;58542.28;4831372;29;20176;-78
2023/01/12 09:24:55;;;;;;;9.82;2.90;;;9.70;99.90;;;-146.68;100.00;58542.28;4813300;29;20112;-78
2023/01/12 09:27:23;;;;;;;10.13;3.60;;;9.80;99.90;;;-146.68;100.00;58542.28;4818094;29;20900;-79
2023/01/12 09:29:58;;;;;;;11.20;3.05;;;9.70;99.90;;;-146.68;100.00;58542.28;4803372;29;20431;-81
2023/01/12 09:32:29;;;;;;;11.95;2.90;;;9.80;99.90;;;-146.68;100.00;58542.28;4790316;29;20054;-77
2023/01/12 09:35:04;;;;;;;11.10;3.70;;;9.90;99.90;;;-146.68;100.00;58542.28;4802476;29;20059;-81
2023/01/12 09:37:33;;;;;;;7.85;2.35;;;9.80;99.90;;;-146.68;100.00;58542.28;4804216;29;20624;-77
2023/01/12 09:40:03;;;;;;;11.68;3.08;;;11.70;99.90;;;-146.68;100.00;58542.28;4811032;29;20058;-79
2023/01/12 09:48:24;;;;;;;7.53;2.63;;;9.70;99.90;;;-146.68;100.00;58542.28;4808277;29;20118;-78
2023/01/12 09:51:06;;;;;;;9.52;3.63;;;9.70;99.90;;;-146.68;100.00;58542.28;4812772;29;20054;-78
2023/01/12 09:53:42;;;;;;;12.50;3.50;;;9.80;99.90;;;-146.68;100.00;58542.28;4832545;29;20166;-80
2023/01/12 09:56:51;;;;;;;7.22;2.85;;;9.60;99.90;;;-146.68;100.00;58542.28;4823388;29;20473;-77
2023/01/12 09:59:50;;;;;;;10.50;2.85;;;9.60;99.90;;;-146.68;100.00;58542.28;4824067;29;20058;-79
2023/01/12 10:02:17;;;;;;;9.90;3.00;;;9.60;99.90;;;-146.68;100.00;58542.28;4830224;29;20621;-79
2023/01/12 10:04:50;;;;;;;13.15;3.75;;;11.20;99.90;;;-146.68;100.00;58542.28;4811454;29;20065;-82
2023/01/12 10:07:18;;;;;;;12.90;3.10;;;9.60;99.90;;;-146.68;100.00;58542.28;4827652;29;20050;-81
2023/01/12 10:09:45;;;;;;;7.03;2.67;;;9.90;99.90;;;-146.68;100.00;58542.28;4818663;29;20069;-81
2023/01/12 10:12:30;;;;;;;8.02;2.30;;;9.60;99.90;;;-146.68;100.00;58542.28;4836218;29;20617;-80
2023/01/12 10:15:36;;;;;;;5.18;2.47;;;10.50;99.90;;;-146.68;100.00;58542.28;4837160;29;20053;-81
2023/01/12 10:18:34;;;;;;;13.93;4.03;;;9.70;99.90;;;-146.68;100.00;58542.28;4834861;29;20109;-82
2023/01/12 10:21:02;;;;;;;11.05;2.90;;;9.70;99.90;;;-146.68;100.00;58542.28;4836323;29;20061;-80
2023/01/12 10:23:30;;;;;;;10.57;2.50;;;9.80;99.90;;;-146.68;100.00;58542.28;4835500;29;20054;-83
2023/01/12 10:26:23;;;;;;;8.57;2.80;;;9.80;99.90;;;-146.68;100.00;58542.28;4830614;29;20049;-74
2023/01/12 10:28:53;;;;;;;9.80;2.55;;;10.00;99.90;;;-146.68;100.00;58542.28;4851273;29;20061;-76
2023/01/12 10:31:24;;;;;;;7.75;3.35;;;10.10;99.90;;;-146.68;100.00;58542.28;4841177;29;20057;-77
2023/01/12 10:34:06;;;;;;;12.40;2.75;;;10.10;99.90;;;-146.68;100.00;58542.28;4818859;29;20060;-77
2023/01/12 10:36:44;;;;;;;12.65;3.45;;;11.30;99.90;;;-146.68;100.00;58542.28;4852211;29;20791;-79
2023/01/12 10:39:42;;;;;;;8.07;3.15;;;10.60;99.90;;;-146.68;100.00;58542.28;4837125;29;20050;-80
2023/01/12 10:45:22;;;;;;;10.63;3.70;;;10.20;99.90;;;-146.68;100.00;58542.28;4848064;29;20418;-80
2023/01/12 10:47:55;;;;;;;8.57;3.05;;;10.30;99.90;;;-146.68;100.00;58542.28;4832094;29;20074;-81
2023/01/12 10:50:36;;;;;;;8.60;2.78;;;10.30;99.90;;;-146.68;100.00;58542.28;4844156;29;20213;-79
2023/01/12 10:53:14;;;;;;;10.25;2.88;;;10.40;99.90;;;-146.68;100.00;58542.28;4830660;29;20070;-78
2023/01/12 10:55:44;;;;;;;12.60;3.25;;;9.40;99.90;;;-146.68;100.00;58542.28;4850295;29;20046;-77
2023/01/12 10:58:30;;;;;;;9.27;2.70;;;10.80;99.90;;;-146.68;100.00;58542.28;4809619;29;20085;-78
2023/01/12 11:01:01;;;;;;;11.88;4.18;;;10.40;99.90;;;-146.68;100.00;58542.28;4838371;29;20050;-77
2023/01/12 11:03:39;;;;;;;10.70;2.67;;;10.50;99.90;;;-146.68;100.00;58542.28;4762162;29;20057;-78
2023/01/12 11:06:25;;;;;;;6.45;2.85;;;12.30;99.90;;;-146.68;100.00;58542.28;4862549;29;20053;-79
2023/01/12 11:08:54;;;;;;;14.57;2.95;;;10.60;99.90;;;-146.68;100.00;58542.28;4833820;29;20065;-79
2023/01/12 11:11:32;;;;;;;6.05;3.15;;;10.60;99.80;;;-146.68;100.00;58542.28;4853040;29;20048;-80
2023/01/12 11:14:03;;;;;;;7.72;2.92;;;10.60;99.80;;;-146.68;100.00;58542.28;4858601;29;20069;-80
2023/01/12 11:16:43;;;;;;;5.70;2.53;;;9.90;99.90;;;-146.68;100.00;58542.28;4818273;29;20099;-78
2023/01/12 11:19:26;;;;;;;;;;;11.40;99.90;;;-146.68;100.00;58542.28;4859079;29;20050;-81
2023/01/12 11:22:06;;;;;;;8.60;3.22;;;10.70;99.80;;;-146.68;100.00;58542.28;4849735;29;19933;-79
2023/01/12 11:24:46;;;;;;;8.20;2.80;;;10.70;99.90;;;-146.68;100.00;58542.28;4853037;29;20086;-80
2023/01/12 11:27:23;;;;;;;7.05;2.65;;;10.70;99.90;;;-146.68;100.00;58542.28;4838231;29;20065;-81
2023/01/12 11:30:06;;;;;;;7.68;1.98;;;10.80;99.90;;;-146.68;100.00;58542.28;4844360;29;20054;-81
2023/01/12 11:33:21;;;;;;;7.95;2.70;;;11.00;99.90;;;-146.68;100.00;58542.28;4846956;29;20736;-80
2023/01/12 11:36:25;;;;;;;3.53;1.98;;;11.50;99.90;;;-146.68;100.00;58542.28;4806509;29;20136;-81
2023/01/12 11:39:08;;;;;;;6.35;2.55;;;11.20;99.50;;;-146.68;100.00;58542.28;4825374;29;20058;-81
2023/01/12 11:43:47;;;;;;;6.70;2.50;;;11.30;99.50;;;-146.68;100.00;58542.28;4839201;29;20053;-78
2023/01/12 11:45:00;;;;;;;5.53;1.48;;;11.40;99.40;;;-146.68;100.00;58542.28;4848726;29;20046;-78
2023/01/12 11:47:39;;;;;;;6.30;1.80;;;11.40;99.10;;;-146.68;100.00;58542.28;4857318;29;20045;-78
2023/01/12 11:50:31;;;;;;;5.38;1.92;;;12.30;99.70;;;-146.68;100.00;58542.28;4813776;29;20078;-77
2023/01/12 11:52:58;;;;;;;4.00;2.00;;;11.40;99.20;;;-146.68;100.00;58542.28;4806166;29;20051;-78
2023/01/12 11:55:58;;;;;;;5.60;1.70;;;11.40;99.30;;;-146.68;100.00;58542.28;4816361;29;20199;-79
2023/01/12 11:58:53;;;;;;;2.78;1.55;;;11.30;99.60;;;-146.68;100.00;58542.28;4788769;29;20046;-78
2023/01/12 12:01:32;;;;;;;5.82;1.90;;;11.40;99.70;;;-146.68;100.00;58542.28;4801691;29;20436;-78
2023/01/12 12:04:16;;;;;;;6.07;2.00;;;11.60;99.30;;;-146.68;100.00;58542.28;4813209;29;20150;-78
2023/01/12 12:07:18;;;;;;;5.53;1.85;;;13.10;99.80;;;-146.68;100.00;58542.28;4810064;29;20512;-78
2023/01/12 12:10:03;;;;;;;6.40;1.90;;;11.50;99.40;;;-146.68;100.00;58542.28;4825650;29;20058;-76
2023/01/12 12:12:47;;;;;;;3.20;1.80;;;11.40;99.70;;;-146.68;100.00;58542.28;4812950;29;20106;-73
2023/01/12 12:15:44;;;;;;;5.45;2.80;;;11.40;99.70;;;-146.68;100.00;58542.28;4800107;29;20058;-74
2023/01/12 12:18:27;;;;;;;4.85;1.95;;;11.40;99.60;;;-146.68;100.00;58542.28;4806493;29;20126;-74
2023/01/12 12:21:15;;;;;;;4.80;1.90;;;11.40;99.80;;;-146.68;100.00;58542.28;4824621;29;20062;-74
2023/01/12 12:24:09;;;;;;;3.70;1.73;;;11.40;99.60;;;-146.68;100.00;58542.28;4823202;29;20050;-74
2023/01/12 12:27:05;;;;;;;5.47;2.00;;;11.40;99.80;;;-146.68;100.00;58542.28;4847372;29;20053;-74
2023/01/12 12:30:34;;;;;;;5.55;2.47;;;11.90;99.90;;;-146.68;100.00;58542.28;4834012;29;20057;-74
2023/01/12 12:33:53;;;;;;;5.93;3.05;;;11.30;99.90;;;-146.68;100.00;58542.28;4813611;29;20060;-74
2023/01/12 12:37:03;;;;;;;7.20;3.58;;;11.30;99.90;;;-146.68;100.00;58542.28;4780293;29;20152;-74
2023/01/12 12:39:34;;;;;;;4.88;2.33;;;11.20;99.90;;;-146.68;100.00;58542.28;4856478;29;20498;-74
2023/01/12 12:46:03;;;;;;;5.20;2.22;;;11.20;99.90;;;-146.68;100.00;58542.28;4838012;29;20045;-73
2023/01/12 12:48:46;;;;;;;3.60;2.20;;;11.20;99.90;;;-146.68;100.00;58542.28;4826865;29;20410;-73
2023/01/12 12:51:15;;;;;;;4.03;1.98;;;11.40;99.90;;;-146.68;100.00;58542.28;4841860;29;20053;-74
2023/01/12 12:53:46;;;;;;;4.55;1.80;;;11.10;99.90;;;-146.68;100.00;58542.28;4821167;29;20038;-74
2023/01/12 12:56:17;;;;;;;6.57;2.00;;;11.10;99.90;;;-146.68;100.00;58542.28;4818743;29;20064;-74
2023/01/12 12:58:55;;;;;;;6.32;2.55;;;11.20;99.90;;;-146.68;100.00;58542.28;4818130;29;20050;-74
2023/01/12 13:01:28;;;;;;;3.63;1.80;;;11.20;99.90;;;-146.68;100.00;58542.28;4818220;29;20066;-74
2023/01/12 13:04:01;;;;;;;3.92;1.60;;;11.20;99.90;;;-146.68;100.00;58542.28;4822679;29;20073;-74
2023/01/12 13:06:41;;;;;;;3.38;2.00;;;11.10;99.90;;;-146.68;100.00;58542.28;4817968;29;20060;-74
2023/01/12 13:09:09;;;;;;;5.60;1.88;;;11.10;99.90;;;-146.68;100.00;58542.28;4818412;29;20066;-73
2023/01/12 13:11:57;;;;;;;4.15;1.65;;;11.20;99.90;;;-146.68;100.00;58542.28;4826793;29;20521;-74
2023/01/12 13:14:35;;;;;;;5.45;1.90;;;11.20;99.90;;;-146.68;100.00;58542.28;4842034;29;20498;-74
2023/01/12 13:17:18;;;;;;;4.13;1.88;;;11.10;99.90;;;-146.68;100.00;58542.28;4852704;29;20055;-74
2023/01/12 13:20:09;;;;;;;4.30;1.77;;;11.10;99.90;;;-146.68;100.00;58542.28;4845344;29;20045;-74
2023/01/12 13:22:51;;;;;;;4.70;1.83;;;12.30;99.90;;;-146.68;100.00;58542.28;4828580;29;20430;-74
2023/01/12 13:25:22;;;;;;;5.38;1.95;;;11.20;99.90;;;-146.68;100.00;58542.28;4826582;29;20431;-74
2023/01/12 13:28:04;;;;;;;4.45;1.50;;;11.20;99.90;;;-146.68;100.00;58542.28;4843967;29;20058;-74
2023/01/12 13:30:31;;;;;;;4.63;1.77;;;12.90;99.90;;;-146.68;100.00;58542.28;4844906;29;20144;-74
2023/01/12 13:33:13;;;;;;;6.65;2.00;;;11.30;99.90;;;-146.68;100.00;58542.28;4844136;29;20046;-74
2023/01/12 13:35:43;;;;;;;3.05;1.80;;;11.40;99.80;;;-146.68;100.00;58542.28;4820478;29;20423;-73
2023/01/12 13:38:32;;;;;;;4.28;1.80;;;11.50;99.70;;;-146.68;100.00;58542.28;4845111;29;20053;-74
2023/01/12 13:44:33;;;;;;;4.30;2.00;;;11.60;99.40;;;-146.68;100.00;58542.28;4831895;29;20404;-73
2023/01/12 13:47:23;;;;;;;2.70;1.48;;;11.50;99.50;;;-146.68;100.00;58542.28;4829069;29;20049;-73
2023/01/12 13:49:57;;;;;;;6.75;2.00;;;11.50;99.70;;;-146.68;100.00;58542.28;4821190;29;20572;-73
2023/01/12 13:52:32;;;;;;;5.70;1.58;;;11.40;99.70;;;-146.68;100.00;58542.28;4821033;29;20599;-74
2023/01/12 13:55:04;;;;;;;4.18;2.00;;;11.40;99.80;;;-146.68;100.00;58542.28;4804234;29;20054;-73
2023/01/12 13:58:05;;;;;;;4.57;1.63;;;11.40;99.90;;;-146.68;100.00;58542.28;4832958;29;20486;-74
2023/01/12 14:00:36;;;;;;;7.10;3.70;;;11.30;99.90;;;-146.68;100.00;58542.28;4813462;29;20150;-74
2023/01/12 14:03:03;;;;;;;;;;;11.20;99.90;;;-146.68;100.00;58542.28;4831627;29;20153;-73
2023/01/12 14:06:18;;;;;;;9.05;1.58;;;11.10;99.90;;;-146.68;100.00;58542.28;4835086;29;19939;-74
2023/01/12 14:09:24;;;;;;;6.53;2.00;;;11.10;99.90;;;-146.68;100.00;58542.28;4846593;29;20523;-74
2023/01/12 14:12:24;;;;;;;2.92;1.55;;;11.80;99.90;;;-146.68;100.00;58542.28;4839066;29;20534;-73
2023/01/12 14:18:22;;;;;;;8.38;1.90;;;11.00;99.90;;;-146.68;100.00;58542.28;4843406;29;20744;-73
2023/01/12 14:20:53;;;;;;;7.50;2.67;;;10.90;99.90;;;-146.68;100.00;58542.28;4817435;29;20062;-73
2023/01/12 14:23:34;;;;;;;5.60;2.13;;;10.80;99.90;;;-146.68;100.00;58542.28;4813128;29;20100;-74
2023/01/12 14:26:13;;;;;;;3.38;1.73;;;10.80;99.90;;;-146.68;100.00;58542.28;4794077;29;20054;-73
2023/01/12 14:28:46;;;;;;;4.55;1.85;;;12.50;99.90;;;-146.68;100.00;58542.28;4771736;29;20154;-73
2023/01/12 14:31:35;;;;;;;6.13;2.20;;;10.70;99.90;;;-146.68;100.00;58542.28;4818837;29;20061;-73
2023/01/12 14:34:06;;;;;;;5.30;2.08;;;10.70;99.90;;;-146.68;100.00;58542.28;4811661;29;20070;-73
2023/01/12 14:36:44;;;;;;;3.67;1.73;;;11.20;99.90;;;-146.68;100.00;58542.28;4806528;29;20047;-73
2023/01/12 14:39:25;;;;;;;4.30;1.90;;;10.80;99.90;;;-146.68;100.00;58542.28;4800765;29;20054;-74
2023/01/12 14:48:23;;;;;;;4.25;1.50;;;10.90;99.90;;;-146.68;100.00;58542.28;4809000;29;20050;-73
2023/01/12 14:51:21;;;;;;;4.55;1.83;;;10.90;99.90;;;-146.68;100.00;58542.28;4809803;29;20054;-74
2023/01/12 14:54:00;;;;;;;2.95;1.80;;;10.90;99.90;;;-146.68;100.00;58542.28;4849128;29;20077;-73
2023/01/12 14:57:17;;;;;;;3.22;1.27;;;10.90;99.90;;;-146.68;100.00;58542.28;4828334;29;20045;-73
2023/01/12 14:59:47;;;;;;;4.20;1.77;;;10.90;99.90;;;-146.68;100.00;58542.28;4829272;29;20423;-74
2023/01/12 15:02:40;;;;;;;4.03;1.98;;;11.20;99.90;;;-146.68;100.00;58542.28;4840171;29;20529;-73
2023/01/12 15:05:07;;;;;;;1.98;1.45;;;11.00;99.90;;;-146.68;100.00;58542.28;4823957;29;20045;-76
2023/01/12 15:08:01;;;;;;;6.53;2.22;;;11.80;99.90;;;-146.68;100.00;58542.28;4839163;29;20125;-78
2023/01/12 15:10:41;;;;;;;2.65;1.63;;;11.00;99.90;;;-146.68;100.00;58542.28;4840313;29;20411;-76
2023/01/12 15:13:26;;;;;;;4.50;1.80;;;11.00;99.90;;;-146.68;100.00;58542.28;4827009;29;20053;-78
2023/01/12 15:27:20;;;;;;;4.63;1.45;;;10.90;99.90;;;-146.68;100.00;58542.28;4824059;29;20054;-75
2023/01/12 15:29:47;;;;;;;2.58;1.60;;;11.00;99.90;;;-146.68;100.00;58542.28;4836979;29;20453;-76
2023/01/12 15:32:33;;;;;;;3.92;2.30;;;10.90;99.90;;;-146.68;100.00;58542.28;4828999;29;20050;-76
2023/01/12 15:35:23;;;;;;;3.38;2.10;;;10.90;99.90;;;-146.68;100.00;58542.28;4823616;29;20146;-76
2023/01/12 15:37:53;;;;;;;3.63;1.55;;;10.90;99.90;;;-146.68;100.00;58542.28;4831544;29;20060;-76
2023/01/12 15:40:23;;;;;;;3.13;1.50;;;10.90;99.90;;;-146.68;100.00;58542.28;4832764;29;20064;-76
2023/01/12 15:42:51;;;;;;;3.90;1.65;;;10.90;99.90;;;-146.68;100.00;58542.28;4833975;29;20053;-76
2023/01/12 15:45:39;;;;;;;4.67;1.80;;;11.00;99.90;;;-146.68;100.00;58542.28;4835152;29;20046;-76
2023/01/12 15:48:07;;;;;;;2.45;1.75;;;11.00;99.90;;;-146.68;100.00;58542.28;4822336;29;20145;-76
2023/01/12 15:50:39;;;;;;;2.22;1.98;;;11.00;99.90;;;-146.68;100.00;58542.28;4822708;29;20102;-76
2023/01/12 15:53:20;;;;;;;4.10;1.80;;;10.90;99.90;;;-146.68;100.00;58542.28;4821625;29;20532;-76
2023/01/12 15:55:47;;;;;;;4.80;2.13;;;11.60;99.90;;;-146.68;100.00;58542.28;4821545;29;20329;-76
2023/01/12 15:58:35;;;;;;;3.65;1.77;;;10.90;99.90;;;-146.68;100.00;58542.28;4821587;29;20045;-77
2023/01/12 16:01:05;;;;;;;2.75;1.63;;;11.00;99.90;;;-146.68;100.00;58542.28;4798299;29;20508;-77
2023/01/12 16:03:32;;;;;;;5.15;1.60;;;11.00;99.90;;;-146.68;100.00;58542.28;4803298;29;20496;-76
2023/01/12 16:06:19;;;;;;;4.32;1.40;;;10.90;99.90;;;-146.68;100.00;58542.28;4798954;29;20473;-77
2023/01/12 16:08:48;;;;;;;3.83;1.50;;;10.90;99.90;;;-146.68;100.00;58542.28;4799428;29;20055;-76
2023/01/12 16:11:25;;;;;;;2.50;1.70;;;12.20;99.90;;;-146.68;100.00;58542.28;4801415;29;20047;-78
2023/01/12 16:14:21;;;;;;;3.50;1.63;;;10.90;99.90;;;-146.68;100.00;58542.28;4794981;30;20055;-77
2023/01/12 16:16:48;;;;;;;4.22;1.85;;;10.90;99.90;;;-146.68;100.00;58542.28;4767316;30;20062;-78
2023/01/12 16:19:21;;;;;;;3.08;1.80;;;11.00;99.90;;;-146.68;100.00;58542.28;4781638;30;20060;-77
2023/01/12 16:21:53;;;;;;;4.72;2.05;;;10.90;99.90;;;-146.68;100.00;58542.28;4780927;30;20548;-78
2023/01/12 16:24:25;;;;;;;4.07;1.90;;;11.20;99.90;;;-146.68;100.00;58542.28;4767344;30;20059;-77
2023/01/12 16:26:52;;;;;;;5.57;1.85;;;12.00;99.90;;;-146.68;100.00;58542.28;4787652;29;20441;-77